createdAt,value
2018-11-28T00:02:25.758Z,100.00
2018-11-28T00:04:55.784Z,100.00
2018-11-28T00:07:25.886Z,100.00
2018-11-28T00:09:55.899Z,100.00
2018-11-28T00:12:25.967Z,100.00
2018-11-28T00:14:55.939Z,100.00
2018-11-28T00:17:26.011Z,100.00
2018-11-28T00:19:56.037Z,100.00
2018-11-28T00:22:26.089Z,100.00
2018-11-28T00:24:56.103Z,100.00
2018-11-28T00:27:26.137Z,100.00
2018-11-28T00:29:56.134Z,100.00
2018-11-28T00:32:26.109Z,100.00
2018-11-28T00:34:56.181Z,100.00
2018-11-28T00:37:26.177Z,100.00
2018-11-28T00:39:56.189Z,100.00
2018-11-28T00:42:29.704Z,100.00
2018-11-28T00:44:59.833Z,100.00
2018-11-28T00:47:29.876Z,100.00
2018-11-28T00:49:59.858Z,100.00
2018-11-28T00:52:29.902Z,100.00
2018-11-28T00:54:59.920Z,100.00
2018-11-28T00:57:29.952Z,100.00
2018-11-28T01:00:00.299Z,100.00
2018-11-28T01:02:30.311Z,100.00
2018-11-28T01:05:00.322Z,100.00
2018-11-28T01:07:30.389Z,100.00
2018-11-28T01:10:00.376Z,100.00
2018-11-28T01:12:30.444Z,100.00
2018-11-28T01:15:00.504Z,100.00
2018-11-28T01:17:30.528Z,100.00
2018-11-28T01:20:00.609Z,100.00
2018-11-28T01:22:30.668Z,100.00
2018-11-28T01:25:00.680Z,100.00
2018-11-28T01:27:30.661Z,100.00
2018-11-28T01:30:00.712Z,100.00
2018-11-28T01:32:30.820Z,100.00
2018-11-28T01:35:00.821Z,100.00
2018-11-28T01:37:31.208Z,100.00
2018-11-28T01:40:01.222Z,100.00
2018-11-28T01:42:31.221Z,100.00
2018-11-28T01:45:01.232Z,100.00
2018-11-28T01:47:31.286Z,100.00
2018-11-28T01:50:01.678Z,100.00
2018-11-28T01:52:31.314Z,100.00
2018-11-28T01:55:01.404Z,100.00
2018-11-28T01:57:31.436Z,100.00
2018-11-28T02:00:01.424Z,100.00
2018-11-28T02:02:31.467Z,100.00
2018-11-28T02:05:01.485Z,100.00
2018-11-28T02:07:31.479Z,100.00
2018-11-28T02:10:01.461Z,100.00
2018-11-28T02:12:31.468Z,100.00
2018-11-28T02:15:01.474Z,100.00
2018-11-28T02:17:31.609Z,100.00
2018-11-28T02:20:01.728Z,100.00
2018-11-28T02:22:31.770Z,100.00
2018-11-28T02:25:01.760Z,100.00
2018-11-28T02:27:31.833Z,100.00
2018-11-28T02:30:01.881Z,100.00
2018-11-28T02:32:31.942Z,100.00
2018-11-28T02:35:02.010Z,100.00
2018-11-28T02:37:32.030Z,100.00
2018-11-28T02:40:02.076Z,100.00
2018-11-28T02:42:32.152Z,100.00
2018-11-28T02:45:02.166Z,100.00
2018-11-28T02:47:32.170Z,100.00
2018-11-28T02:50:18.166Z,100.00
2018-11-28T02:52:49.512Z,100.00
2018-11-28T02:55:19.562Z,100.00
2018-11-28T02:57:50.411Z,100.00
2018-11-28T03:00:23.234Z,100.00
2018-11-28T03:02:53.464Z,100.00
2018-11-28T03:05:23.491Z,100.00
2018-11-28T03:07:53.458Z,100.00
2018-11-28T03:10:23.731Z,100.00
2018-11-28T03:12:53.722Z,100.00
2018-11-28T03:15:28.967Z,100.00
2018-11-28T03:17:58.959Z,100.00
2018-11-28T03:20:28.970Z,100.00
2018-11-28T03:22:58.968Z,100.00
2018-11-28T03:25:29.009Z,100.00
2018-11-28T03:27:59.028Z,100.00
2018-11-28T03:30:29.059Z,100.00
2018-11-28T03:32:59.075Z,100.00
2018-11-28T03:35:29.466Z,100.00
2018-11-28T03:37:59.442Z,100.00
2018-11-28T03:40:29.451Z,100.00
2018-11-28T03:42:59.455Z,100.00
2018-11-28T03:45:29.707Z,100.00
2018-11-28T03:47:59.942Z,100.00
2018-11-28T03:50:29.942Z,100.00
2018-11-28T03:53:03.232Z,100.00
2018-11-28T03:55:33.332Z,100.00
2018-11-28T03:58:03.402Z,100.00
2018-11-28T04:00:33.412Z,100.00
2018-11-28T04:03:03.466Z,100.00
2018-11-28T04:05:33.494Z,100.00
2018-11-28T04:08:03.572Z,100.00
2018-11-28T04:10:33.587Z,100.00
2018-11-28T04:13:03.678Z,99.91
2018-11-28T04:15:33.724Z,99.90
2018-11-28T04:18:03.809Z,100.00
2018-11-28T04:20:33.825Z,99.97
2018-11-28T04:23:03.878Z,99.79
2018-11-28T04:25:34.136Z,99.35
2018-11-28T04:28:04.189Z,99.28
2018-11-28T04:30:34.148Z,99.56
2018-11-28T04:33:04.200Z,99.72
2018-11-28T04:35:34.148Z,99.76
2018-11-28T04:38:04.236Z,99.42
2018-11-28T04:40:34.233Z,99.33
2018-11-28T04:43:04.536Z,98.32
2018-11-28T04:45:34.505Z,99.32
2018-11-28T04:48:05.450Z,98.78
2018-11-28T04:50:35.426Z,98.18
2018-11-28T04:53:06.379Z,98.50
2018-11-28T04:55:36.389Z,98.37
2018-11-28T04:58:06.749Z,98.83
2018-11-28T05:00:37.147Z,98.38
2018-11-28T05:03:07.188Z,98.31
2018-11-28T05:05:37.205Z,98.68
2018-11-28T05:08:07.163Z,98.61
2018-11-28T05:10:37.374Z,98.39
2018-11-28T05:13:07.346Z,98.86
2018-11-28T05:15:37.912Z,97.96
2018-11-28T05:18:08.039Z,98.98
2018-11-28T05:20:38.002Z,98.95
2018-11-28T05:23:08.270Z,98.70
2018-11-28T05:25:39.693Z,98.25
2018-11-28T05:28:09.686Z,97.68
2018-11-28T05:30:39.716Z,97.55
2018-11-28T05:33:11.213Z,98.45
2018-11-28T05:35:41.353Z,98.20
2018-11-28T05:38:15.569Z,98.49
2018-11-28T05:40:45.977Z,97.96
2018-11-28T05:43:15.975Z,98.89
2018-11-28T05:45:45.985Z,98.69
2018-11-28T05:48:16.011Z,99.63
2018-11-28T05:50:46.067Z,99.57
2018-11-28T05:53:16.049Z,100.00
2018-11-28T05:55:46.168Z,99.65
2018-11-28T05:58:16.190Z,100.00
2018-11-28T06:00:46.223Z,99.89
2018-11-28T06:03:16.478Z,99.93
2018-11-28T06:05:46.562Z,99.42
2018-11-28T06:08:17.236Z,99.25
2018-11-28T06:10:47.277Z,99.00
2018-11-28T06:13:17.698Z,99.91
2018-11-28T06:15:47.704Z,100.00
2018-11-28T06:18:17.713Z,99.47
2018-11-28T06:20:47.777Z,99.65
2018-11-28T06:23:19.061Z,100.00
2018-11-28T06:25:49.151Z,100.00
2018-11-28T06:28:19.143Z,100.00
2018-11-28T06:30:49.117Z,100.00
2018-11-28T06:33:19.130Z,100.00
2018-11-28T06:35:49.137Z,100.00
2018-11-28T06:38:19.138Z,100.00
2018-11-28T06:40:55.785Z,100.00
2018-11-28T06:43:25.799Z,100.00
2018-11-28T06:45:55.843Z,100.00
2018-11-28T06:48:25.829Z,100.00
2018-11-28T06:50:55.830Z,100.00
2018-11-28T06:53:25.893Z,100.00
2018-11-28T06:56:02.307Z,100.00
2018-11-28T06:58:32.346Z,100.00
2018-11-28T07:01:02.371Z,100.00
2018-11-28T07:03:32.396Z,100.00
2018-11-28T07:06:02.474Z,100.00
2018-11-28T07:08:32.568Z,100.00
2018-11-28T07:11:02.577Z,100.00
2018-11-28T07:13:32.613Z,100.00
2018-11-28T07:16:02.608Z,100.00
2018-11-28T07:18:43.788Z,100.00
2018-11-28T07:21:13.800Z,100.00
2018-11-28T07:23:44.202Z,100.00
2018-11-28T07:26:14.219Z,100.00
2018-11-28T07:28:44.300Z,100.00
2018-11-28T07:31:14.292Z,98.56
2018-11-28T07:33:44.350Z,97.59
2018-11-28T07:36:14.626Z,97.86
2018-11-28T07:38:44.690Z,96.62
2018-11-28T07:41:14.685Z,95.86
2018-11-28T07:43:44.738Z,94.06
2018-11-28T07:46:14.718Z,93.27
2018-11-28T07:48:44.778Z,93.38
2018-11-28T07:51:14.811Z,92.64
2018-11-28T07:53:44.868Z,92.11
2018-11-28T07:56:14.821Z,90.43
2018-11-28T07:58:45.084Z,89.58
2018-11-28T08:01:15.073Z,89.34
2018-11-28T08:03:45.150Z,88.35
2018-11-28T08:06:15.124Z,88.00
2018-11-28T08:08:45.195Z,87.28
2018-11-28T08:11:15.192Z,85.75
2018-11-28T08:13:45.273Z,85.19
2018-11-28T08:16:15.274Z,83.71
2018-11-28T08:18:45.340Z,81.13
2018-11-28T08:21:15.394Z,81.42
2018-11-28T08:23:45.418Z,79.75
2018-11-28T08:26:15.448Z,79.50
2018-11-28T08:28:45.536Z,77.94
2018-11-28T08:31:15.512Z,78.15
2018-11-28T08:33:45.587Z,77.62
2018-11-28T08:36:15.628Z,74.85
2018-11-28T08:38:45.629Z,73.63
2018-11-28T08:41:15.652Z,72.14
2018-11-28T08:43:45.854Z,72.39
2018-11-28T08:46:15.821Z,73.79
2018-11-28T08:48:45.849Z,72.77
2018-11-28T08:51:15.832Z,71.63
2018-11-28T08:53:45.872Z,71.09
2018-11-28T08:56:15.856Z,69.43
2018-11-28T08:58:45.850Z,70.19
2018-11-28T09:01:15.862Z,71.87
2018-11-28T09:03:45.857Z,73.34
2018-11-28T09:06:15.881Z,74.07
2018-11-28T09:08:45.923Z,71.85
2018-11-28T09:11:15.994Z,71.32
2018-11-28T09:13:46.993Z,72.40
2018-11-28T09:16:18.103Z,72.15
2018-11-28T09:18:48.143Z,71.76
2018-11-28T09:21:18.535Z,71.70
2018-11-28T09:23:48.916Z,71.79
2018-11-28T09:26:19.238Z,71.92
2018-11-28T09:28:49.558Z,70.83
2018-11-28T09:31:19.687Z,68.91
2018-11-28T09:33:49.658Z,69.55
2018-11-28T09:36:19.958Z,70.46
2018-11-28T09:38:49.924Z,71.16
2018-11-28T09:41:20.026Z,70.60
2018-11-28T09:43:50.014Z,71.14
2018-11-28T09:46:20.006Z,72.76
2018-11-28T09:48:50.042Z,71.85
2018-11-28T09:51:20.086Z,71.47
2018-11-28T09:53:50.098Z,70.93
2018-11-28T09:56:20.136Z,72.94
2018-11-28T09:58:50.078Z,73.95
2018-11-28T10:01:20.120Z,73.48
2018-11-28T10:03:50.099Z,73.13
2018-11-28T10:06:20.164Z,72.80
2018-11-28T10:08:50.168Z,71.54
2018-11-28T10:11:20.154Z,72.09
2018-11-28T10:13:50.175Z,70.77
2018-11-28T10:16:20.224Z,68.99
2018-11-28T10:18:50.221Z,68.55
2018-11-28T10:21:20.219Z,69.64
2018-11-28T10:23:50.224Z,68.60
2018-11-28T10:26:20.313Z,68.69
2018-11-28T10:28:50.310Z,68.75
2018-11-28T10:31:20.349Z,69.72
2018-11-28T10:33:50.334Z,68.94
2018-11-28T10:36:20.359Z,67.62
2018-11-28T10:38:51.314Z,65.61
2018-11-28T10:41:21.695Z,66.55
2018-11-28T10:43:51.717Z,65.46
2018-11-28T10:46:21.749Z,64.31
2018-11-28T10:48:51.741Z,63.69
2018-11-28T10:51:21.735Z,62.17
2018-11-28T10:53:51.809Z,64.37
2018-11-28T10:56:21.895Z,67.97
2018-11-28T10:58:51.921Z,69.37
2018-11-28T11:01:28.256Z,70.29
2018-11-28T11:04:03.575Z,70.36
2018-11-28T11:06:38.917Z,70.46
2018-11-28T11:09:14.764Z,70.11
2018-11-28T11:11:50.100Z,68.93
2018-11-28T11:14:25.354Z,67.68
2018-11-28T11:16:55.379Z,67.15
2018-11-28T11:19:25.409Z,66.76
2018-11-28T11:21:55.444Z,64.66
2018-11-28T11:24:25.438Z,66.41
2018-11-28T11:26:55.414Z,66.04
2018-11-28T11:29:25.433Z,65.52
2018-11-28T11:31:55.569Z,64.49
2018-11-28T11:34:25.633Z,65.36
2018-11-28T11:36:55.703Z,68.14
2018-11-28T11:39:25.708Z,70.33
2018-11-28T11:41:55.678Z,71.33
2018-11-28T11:44:25.754Z,70.65
2018-11-28T11:46:55.768Z,70.02
2018-11-28T11:49:25.740Z,70.38
2018-11-28T11:51:56.013Z,71.13
2018-11-28T11:54:25.982Z,70.47
2018-11-28T11:56:55.996Z,71.31
2018-11-28T11:59:26.007Z,70.63
2018-11-28T12:01:56.067Z,68.29
2018-11-28T12:04:26.092Z,66.70
2018-11-28T12:06:56.134Z,64.92
2018-11-28T12:09:26.343Z,65.66
2018-11-28T12:11:56.156Z,66.78
2018-11-28T12:14:26.180Z,66.99
2018-11-28T12:16:56.188Z,65.46
2018-11-28T12:19:26.161Z,64.45
2018-11-28T12:21:56.195Z,65.11
2018-11-28T12:24:26.182Z,65.37
2018-11-28T12:26:56.224Z,65.80
2018-11-28T12:29:26.226Z,67.29
2018-11-28T12:31:56.304Z,67.89
2018-11-28T12:34:26.340Z,68.10
2018-11-28T12:36:56.422Z,68.56
2018-11-28T12:39:26.398Z,68.52
2018-11-28T12:41:56.539Z,68.78
2018-11-28T12:44:26.553Z,69.02
2018-11-28T12:46:56.577Z,70.03
2018-11-28T12:49:26.703Z,70.29
2018-11-28T12:51:56.906Z,68.93
2018-11-28T12:54:26.875Z,68.35
2018-11-28T12:56:56.957Z,68.21
2018-11-28T12:59:27.141Z,67.19
2018-11-28T13:01:57.273Z,68.04
2018-11-28T13:04:27.665Z,66.23
2018-11-28T13:06:57.709Z,65.39
2018-11-28T13:09:27.752Z,64.90
2018-11-28T13:11:59.961Z,63.38
2018-11-28T13:14:27.821Z,63.52
2018-11-28T13:16:58.006Z,63.13
2018-11-28T13:19:29.071Z,62.70
2018-11-28T13:21:59.081Z,61.65
2018-11-28T13:24:29.215Z,61.57
2018-11-28T13:26:59.280Z,64.73
2018-11-28T13:29:29.262Z,66.72
2018-11-28T13:31:59.340Z,68.42
2018-11-28T13:34:29.417Z,71.05
2018-11-28T13:36:59.606Z,72.34
2018-11-28T13:39:29.624Z,73.39
2018-11-28T13:41:59.618Z,73.95
2018-11-28T13:44:29.939Z,74.07
2018-11-28T13:46:59.941Z,74.10
2018-11-28T13:49:30.059Z,74.83
2018-11-28T13:52:00.096Z,75.72
2018-11-28T13:54:30.184Z,76.07
2018-11-28T13:57:04.728Z,76.07
2018-11-28T13:59:30.263Z,76.34
2018-11-28T14:02:00.298Z,76.29
2018-11-28T14:04:30.554Z,76.28
2018-11-28T14:07:00.962Z,76.76
2018-11-28T14:09:31.003Z,76.57
2018-11-28T14:12:01.015Z,76.31
2018-11-28T14:14:31.081Z,76.88
2018-11-28T14:17:01.311Z,77.25
2018-11-28T14:19:31.358Z,77.51
2018-11-28T14:22:01.329Z,77.46
2018-11-28T14:24:31.664Z,78.18
2018-11-28T14:27:01.810Z,77.96
2018-11-28T14:29:31.888Z,78.58
2018-11-28T14:32:01.935Z,78.36
2018-11-28T14:34:31.945Z,78.72
2018-11-28T14:37:01.964Z,78.40
2018-11-28T14:39:33.039Z,79.21
2018-11-28T14:42:03.138Z,79.70
2018-11-28T14:44:33.510Z,79.51
2018-11-28T14:47:03.608Z,80.30
2018-11-28T14:49:33.700Z,80.14
2018-11-28T14:52:03.969Z,80.94
2018-11-28T14:54:34.000Z,80.43
2018-11-28T14:57:06.048Z,80.33
2018-11-28T14:59:40.448Z,80.62
2018-11-28T15:02:06.687Z,81.62
2018-11-28T15:04:36.706Z,81.60
2018-11-28T15:07:07.985Z,82.25
2018-11-28T15:09:43.152Z,83.11
2018-11-28T15:12:14.054Z,82.69
2018-11-28T15:14:44.154Z,83.34
2018-11-28T15:17:14.164Z,84.21
2018-11-28T15:19:44.218Z,84.29
2018-11-28T15:22:14.305Z,84.56
2018-11-28T15:24:44.637Z,84.64
2018-11-28T15:27:14.791Z,84.51
2018-11-28T15:29:44.858Z,84.98
2018-11-28T15:32:14.970Z,85.74
2018-11-28T15:34:48.399Z,85.53
2018-11-28T15:37:18.390Z,86.58
2018-11-28T15:39:48.497Z,86.50
2018-11-28T15:42:18.447Z,86.92
2018-11-28T15:44:48.609Z,87.88
2018-11-28T15:47:18.627Z,86.57
2018-11-28T15:49:48.602Z,87.27
2018-11-28T15:52:18.884Z,86.75
2018-11-28T15:54:48.936Z,87.58
2018-11-28T15:57:19.050Z,88.06
2018-11-28T15:59:49.164Z,87.77
2018-11-28T16:02:19.176Z,87.88
2018-11-28T16:04:49.249Z,88.11
2018-11-28T16:07:19.250Z,89.16
2018-11-28T16:09:54.456Z,88.94
2018-11-28T16:12:24.438Z,89.48
2018-11-28T16:14:54.464Z,89.28
2018-11-28T16:17:24.604Z,88.99
2018-11-28T16:19:54.601Z,88.81
2018-11-28T16:22:24.690Z,89.80
2018-11-28T16:24:54.864Z,89.52
2018-11-28T16:27:24.991Z,89.55
2018-11-28T16:29:54.848Z,89.50
2018-11-28T16:32:24.849Z,89.28
2018-11-28T16:34:55.160Z,89.37
2018-11-28T16:37:25.211Z,88.96
2018-11-28T16:39:55.315Z,89.98
2018-11-28T16:42:25.292Z,89.10
2018-11-28T16:44:55.373Z,89.29
2018-11-28T16:47:25.387Z,88.92
2018-11-28T16:49:55.467Z,90.08
2018-11-28T16:52:25.465Z,89.42
2018-11-28T16:54:55.513Z,90.05
2018-11-28T16:57:25.709Z,89.99
2018-11-28T16:59:55.723Z,90.02
2018-11-28T17:02:25.709Z,90.39
2018-11-28T17:04:55.775Z,90.62
2018-11-28T17:07:25.793Z,90.24
2018-11-28T17:09:55.863Z,90.67
2018-11-28T17:12:25.868Z,91.30
2018-11-28T17:14:55.909Z,91.05
2018-11-28T17:17:25.905Z,90.97
2018-11-28T17:19:55.970Z,91.70
2018-11-28T17:22:26.065Z,90.98
2018-11-28T17:24:56.455Z,92.62
2018-11-28T17:27:26.731Z,92.91
2018-11-28T17:29:56.944Z,92.73
2018-11-28T17:32:26.955Z,93.15
2018-11-28T17:34:57.031Z,92.46
2018-11-28T17:37:27.063Z,92.54
2018-11-28T17:39:58.801Z,93.58
2018-11-28T17:42:29.134Z,92.24
2018-11-28T17:44:59.188Z,92.11
2018-11-28T17:47:29.180Z,92.83
2018-11-28T17:50:00.034Z,93.90
2018-11-28T17:52:30.056Z,93.52
2018-11-28T17:55:00.632Z,94.35
2018-11-28T17:57:30.864Z,94.38
2018-11-28T18:00:00.878Z,94.86
2018-11-28T18:02:31.110Z,94.07
2018-11-28T18:05:01.161Z,95.69
2018-11-28T18:07:31.135Z,95.67
2018-11-28T18:10:01.331Z,94.62
2018-11-28T18:12:31.248Z,95.68
2018-11-28T18:15:01.506Z,94.62
2018-11-28T18:17:31.666Z,94.61
2018-11-28T18:20:02.388Z,95.55
2018-11-28T18:22:32.443Z,94.69
2018-11-28T18:25:02.467Z,94.64
2018-11-28T18:27:32.480Z,95.02
2018-11-28T18:30:02.540Z,94.78
2018-11-28T18:32:32.502Z,94.70
2018-11-28T18:35:02.548Z,94.81
2018-11-28T18:37:32.667Z,95.25
2018-11-28T18:40:02.682Z,94.11
2018-11-28T18:42:32.726Z,94.32
2018-11-28T18:45:02.760Z,94.41
2018-11-28T18:47:32.783Z,94.98
2018-11-28T18:50:03.177Z,95.62
2018-11-28T18:52:33.196Z,95.40
2018-11-28T18:55:03.531Z,95.83
2018-11-28T18:57:33.641Z,95.17
2018-11-28T19:00:03.890Z,95.12
2018-11-28T19:02:45.529Z,94.41
2018-11-28T19:05:16.550Z,95.16
2018-11-28T19:07:46.755Z,94.86
2018-11-28T19:10:26.383Z,95.65
2018-11-28T19:12:52.333Z,95.00
2018-11-28T19:15:25.365Z,95.10
2018-11-28T19:17:56.083Z,95.73
2018-11-28T19:20:26.084Z,95.56
2018-11-28T19:22:57.235Z,95.60
2018-11-28T19:25:33.098Z,95.04
2018-11-28T19:28:03.141Z,95.58
2018-11-28T19:30:43.592Z,94.80
2018-11-28T19:33:14.790Z,95.34
2018-11-28T19:35:44.767Z,94.57
2018-11-28T19:38:16.650Z,95.52
2018-11-28T19:41:04.715Z,94.52
2018-11-28T19:43:34.785Z,94.39
2018-11-28T19:46:04.855Z,95.33
2018-11-28T19:48:35.000Z,94.86
2018-11-28T19:51:06.790Z,94.72
2018-11-28T19:53:36.865Z,93.98
2018-11-28T19:56:07.481Z,94.83
2018-11-28T19:58:37.622Z,95.03
2018-11-28T20:01:07.999Z,93.98
2018-11-28T20:03:40.182Z,94.16
2018-11-28T20:06:10.365Z,93.94
2018-11-28T20:08:40.390Z,94.42
2018-11-28T20:11:10.480Z,93.78
2018-11-28T20:13:40.690Z,93.61
2018-11-28T20:16:11.439Z,94.92
2018-11-28T20:18:41.555Z,95.14
2018-11-28T20:23:41.636Z,94.02
2018-11-28T20:26:11.818Z,94.45
2018-11-28T20:28:41.803Z,93.59
2018-11-28T20:31:12.076Z,94.17
2018-11-28T20:33:42.117Z,95.01
2018-11-28T20:36:12.281Z,94.37
2018-11-28T20:38:42.309Z,94.25
2018-11-28T20:41:12.629Z,94.49
2018-11-28T20:43:42.738Z,95.04
2018-11-28T20:46:13.086Z,94.24
2018-11-28T20:48:43.376Z,95.15
2018-11-28T20:51:13.548Z,95.50
2018-11-28T20:53:43.585Z,94.20
2018-11-28T20:56:13.756Z,94.72
2018-11-28T20:58:45.388Z,93.68
2018-11-28T21:01:15.583Z,93.48
2018-11-28T21:03:45.698Z,93.27
2018-11-28T21:06:15.749Z,93.83
2018-11-28T21:08:45.960Z,93.05
2018-11-28T21:11:16.158Z,92.62
2018-11-28T21:13:46.196Z,92.40
2018-11-28T21:16:16.340Z,93.18
2018-11-28T21:18:47.164Z,94.02
2018-11-28T21:21:17.204Z,93.47
2018-11-28T21:23:47.340Z,92.50
2018-11-28T21:26:17.382Z,93.93
2018-11-28T21:28:47.440Z,94.09
2018-11-28T21:31:17.436Z,93.89
2018-11-28T21:33:47.500Z,92.67
2018-11-28T21:36:17.542Z,93.04
2018-11-28T21:38:47.574Z,92.82
2018-11-28T21:41:17.720Z,93.23
2018-11-28T21:43:47.760Z,92.92
2018-11-28T21:46:22.524Z,92.60
2018-11-28T21:48:52.552Z,93.05
2018-11-28T21:51:22.646Z,92.42
2018-11-28T21:53:52.708Z,92.87
2018-11-28T21:56:22.736Z,92.68
2018-11-28T21:58:52.843Z,93.02
2018-11-28T22:01:22.859Z,92.75
2018-11-28T22:03:52.919Z,91.93
2018-11-28T22:06:22.918Z,92.56
2018-11-28T22:08:53.010Z,91.83
2018-11-28T22:11:23.022Z,91.95
2018-11-28T22:13:53.075Z,91.44
2018-11-28T22:16:23.054Z,91.05
2018-11-28T22:18:53.075Z,91.43
2018-11-28T22:21:23.136Z,92.11
2018-11-28T22:23:53.167Z,91.48
2018-11-28T22:26:23.288Z,92.15
2018-11-28T22:28:53.352Z,91.98
2018-11-28T22:31:23.689Z,92.46
2018-11-28T22:33:53.690Z,92.17
2018-11-28T22:36:23.956Z,92.15
2018-11-28T22:38:54.191Z,92.44
2018-11-28T22:41:24.199Z,92.62
2018-11-28T22:43:54.254Z,91.73
2018-11-28T22:46:24.286Z,92.84
2018-11-28T22:48:54.318Z,92.51
2018-11-28T22:51:24.359Z,92.87
2018-11-28T22:53:54.378Z,93.24
2018-11-28T22:56:31.086Z,91.48
2018-11-28T22:59:01.097Z,92.69
2018-11-28T23:02:40.582Z,91.47
2018-11-28T23:05:10.653Z,91.47
2018-11-28T23:07:40.669Z,92.83
2018-11-28T23:10:10.697Z,92.49
2018-11-28T23:12:40.671Z,92.28
2018-11-28T23:15:10.750Z,92.21
2018-11-28T23:17:40.753Z,91.94
2018-11-28T23:20:10.967Z,91.28
2018-11-28T23:22:41.003Z,91.84
2018-11-28T23:25:11.881Z,91.75
2018-11-28T23:27:41.881Z,91.07
2018-11-28T23:30:15.885Z,92.73
2018-11-28T23:32:46.669Z,93.03
2018-11-28T23:35:16.956Z,92.39
2018-11-28T23:37:48.054Z,93.24
2018-11-28T23:40:21.814Z,93.05
2018-11-28T23:42:52.473Z,92.54
2018-11-28T23:45:22.689Z,93.22
2018-11-28T23:47:52.678Z,92.66
2018-11-28T23:50:26.614Z,93.30
2018-11-28T23:52:56.717Z,93.54
2018-11-28T23:55:28.629Z,93.31
2018-11-28T23:57:58.709Z,94.23
